KVKS/VKS METAR and TAF weather

Enter ICAO airport designator
Station Type Date Time Source
KVKS METAR 2021/07/29 18:55 UTC NOAA

KVKS 291855Z AUTO VRB04KT 9SM FEW042 35/24 A3002 RMK A01


Station Type Date Time Source
KVKS Decoded METAR 2021/07/29 18:55 UTC NOAA

Vicksburg Municipal, MS, United States (KVKS) 32-14N 090-56W
Jul 29, 2021 - 02:55 PM EDT / 2021.07.29 1855 UTC
Wind: Variable at 5 MPH (4 KT):0
Visibility: 9 mile(s):0
Sky conditions: mostly clear
Temperature: 95 F (35 C)
Heat index: 107.4 F (41.9 C):1
Dew Point: 75 F (24 C)
Relative Humidity: 53%
Pressure (altimeter): 30.02 in. Hg (1016 hPa)
ob: KVKS 291855Z AUTO VRB04KT 9SM FEW042 35/24 A3002 RMK A01
cycle: 19

Station Type Date Time Source
KVKS TAF UTC NOAA

Error!

Example: see airport list